Terminal Aerodrome Forecast
Issued by NWS Cleveland, OH

Home | Current Version | Previous Version | Text Only | Print | Product List | Glossary On
Versions: 1 2 3 4 5 6 7 8 9 10 11 12 13 14 15 16 17 18 19 20 21 22
000
FTUS41 KCLE 261500 AAB
TAFMFD
TAF AMD
KMFD 261533Z 2616/2712 33007KT 3SM -RA BR OVC005
     FM261630 33007KT 3SM -SHRA BR OVC006
     FM262100 34006KT P6SM OVC012
     FM270000 27008KT P6SM OVC050
     FM270600 30006KT P6SM OVC050=

USA.gov is the U.S. government's official web portal to all federal, state and local government web resources and services.